Ryegate, Vermont
Current Conditions -  °F | °C
As of 7:51 PM on Friday 19 Dec 2014 (Local Time) from KMPV Reporting Station
Overcast Overcast  
Wind Chill:   Ceiling: 1100
Heat Index: 19°   Visibility: 10mi
Dew Point: 15°   Wind: 8mph
Humidity: 85%   Direction: 40°NE
Pressure: 30.15"   Gusts: NA
Location:  44.1959°N, 72.0788°W
Report Text: KMPV 200051Z AUTO 04007KT 10SM OVC011 M07/M09 A3015 RMK AO2 SLP233 T10721094
Loading
Personal Weather Stations






























Interactive Weather Map New forecast layout! Learn more

10-Day Weather Forecast

Advertisements
Track Severe Weather on mobile